sensor_id;sensor_type;location;lat;lon;timestamp;pressure;altitude;pressure_sealevel;temperature;humidity
21096;BME280;10706;49.036;12.112;2022-08-07T00:01:25;98421.59;;;14.39;67.27
21096;BME280;10706;49.036;12.112;2022-08-07T00:03:51;98432.69;;;14.43;67.10
21096;BME280;10706;49.036;12.112;2022-08-07T00:06:17;98425.69;;;14.42;67.05
21096;BME280;10706;49.036;12.112;2022-08-07T00:08:43;98427.38;;;14.31;67.51
21096;BME280;10706;49.036;12.112;2022-08-07T00:11:09;98425.81;;;14.18;68.58
21096;BME280;10706;49.036;12.112;2022-08-07T00:13:35;98431.25;;;14.07;68.72
21096;BME280;10706;49.036;12.112;2022-08-07T00:16:04;98438.56;;;14.11;68.90
21096;BME280;10706;49.036;12.112;2022-08-07T00:18:31;98437.38;;;14.19;68.58
21096;BME280;10706;49.036;12.112;2022-08-07T00:21:01;98436.78;;;14.17;68.50
21096;BME280;10706;49.036;12.112;2022-08-07T00:23:27;98447.69;;;14.10;68.90
21096;BME280;10706;49.036;12.112;2022-08-07T00:25:53;98438.81;;;14.10;69.41
21096;BME280;10706;49.036;12.112;2022-08-07T00:28:20;98442.38;;;13.98;69.56
21096;BME280;10706;49.036;12.112;2022-08-07T00:30:45;98446.25;;;13.91;69.73
21096;BME280;10706;49.036;12.112;2022-08-07T00:33:12;98444.44;;;14.08;68.68
21096;BME280;10706;49.036;12.112;2022-08-07T00:35:38;98445.81;;;13.82;70.35
21096;BME280;10706;49.036;12.112;2022-08-07T00:38:04;98440.91;;;13.79;70.28
21096;BME280;10706;49.036;12.112;2022-08-07T00:40:30;98441.88;;;13.73;70.21
21096;BME280;10706;49.036;12.112;2022-08-07T00:42:57;98438.03;;;13.69;70.54
21096;BME280;10706;49.036;12.112;2022-08-07T00:45:22;98431.19;;;13.61;71.14
21096;BME280;10706;49.036;12.112;2022-08-07T00:47:49;98438.88;;;13.46;72.53
21096;BME280;10706;49.036;12.112;2022-08-07T00:50:15;98438.47;;;13.37;72.17
21096;BME280;10706;49.036;12.112;2022-08-07T00:52:42;98424.44;;;13.23;72.66
21096;BME280;10706;49.036;12.112;2022-08-07T00:55:08;98435.50;;;13.27;72.90
21096;BME280;10706;49.036;12.112;2022-08-07T00:57:34;98433.44;;;13.17;73.00
21096;BME280;10706;49.036;12.112;2022-08-07T01:00:04;98430.88;;;13.22;72.80
21096;BME280;10706;49.036;12.112;2022-08-07T01:02:30;98438.09;;;13.21;72.99
21096;BME280;10706;49.036;12.112;2022-08-07T01:04:57;98436.47;;;13.20;72.83
21096;BME280;10706;49.036;12.112;2022-08-07T01:07:25;98436.47;;;13.20;71.94
21096;BME280;10706;49.036;12.112;2022-08-07T01:09:51;98436.09;;;13.17;72.85
21096;BME280;10706;49.036;12.112;2022-08-07T01:12:17;98428.19;;;13.34;71.65
21096;BME280;10706;49.036;12.112;2022-08-07T01:14:43;98422.09;;;13.27;72.46
21096;BME280;10706;49.036;12.112;2022-08-07T01:17:10;98429.59;;;13.13;72.87
21096;BME280;10706;49.036;12.112;2022-08-07T01:19:36;98433.09;;;13.01;73.08
21096;BME280;10706;49.036;12.112;2022-08-07T01:22:03;98433.78;;;12.97;73.29
21096;BME280;10706;49.036;12.112;2022-08-07T01:24:29;98437.88;;;12.99;72.94
21096;BME280;10706;49.036;12.112;2022-08-07T01:26:56;98432.97;;;12.96;73.74
21096;BME280;10706;49.036;12.112;2022-08-07T01:29:25;98430.53;;;13.07;72.88
21096;BME280;10706;49.036;12.112;2022-08-07T01:31:52;98423.53;;;13.06;73.00
21096;BME280;10706;49.036;12.112;2022-08-07T01:34:18;98431.13;;;13.09;72.21
21096;BME280;10706;49.036;12.112;2022-08-07T01:36:46;98431.34;;;13.07;72.55
21096;BME280;10706;49.036;12.112;2022-08-07T01:39:12;98428.69;;;12.95;73.17
21096;BME280;10706;49.036;12.112;2022-08-07T01:41:38;98434.25;;;13.06;72.50
21096;BME280;10706;49.036;12.112;2022-08-07T01:44:05;98439.50;;;13.00;73.22
21096;BME280;10706;49.036;12.112;2022-08-07T01:46:31;98437.16;;;12.92;72.64
21096;BME280;10706;49.036;12.112;2022-08-07T01:48:57;98444.50;;;12.85;74.08
21096;BME280;10706;49.036;12.112;2022-08-07T01:51:24;98440.66;;;12.81;73.68
21096;BME280;10706;49.036;12.112;2022-08-07T01:53:57;98435.28;;;12.93;73.62
21096;BME280;10706;49.036;12.112;2022-08-07T01:56:45;98425.50;;;12.98;73.06
21096;BME280;10706;49.036;12.112;2022-08-07T01:59:46;98413.03;;;13.04;72.70
21096;BME280;10706;49.036;12.112;2022-08-07T02:02:31;98412.34;;;12.97;73.08
21096;BME280;10706;49.036;12.112;2022-08-07T02:05:25;98406.63;;;13.05;72.07
21096;BME280;10706;49.036;12.112;2022-08-07T02:07:53;98406.28;;;13.01;72.59
21096;BME280;10706;49.036;12.112;2022-08-07T02:10:25;98406.75;;;13.10;71.31
21096;BME280;10706;49.036;12.112;2022-08-07T02:12:57;98410.94;;;12.94;72.29
21096;BME280;10706;49.036;12.112;2022-08-07T02:15:25;98412.13;;;12.87;72.25
21096;BME280;10706;49.036;12.112;2022-08-07T02:17:54;98405.34;;;12.72;73.06
21096;BME280;10706;49.036;12.112;2022-08-07T02:20:21;98409.09;;;12.59;73.74
21096;BME280;10706;49.036;12.112;2022-08-07T02:22:49;98416.19;;;12.54;73.92
21096;BME280;10706;49.036;12.112;2022-08-07T02:25:18;98407.44;;;12.47;74.61
21096;BME280;10706;49.036;12.112;2022-08-07T02:27:45;98405.28;;;12.37;75.29
21096;BME280;10706;49.036;12.112;2022-08-07T02:30:12;98404.97;;;12.33;74.17
21096;BME280;10706;49.036;12.112;2022-08-07T02:32:38;98404.72;;;12.35;73.91
21096;BME280;10706;49.036;12.112;2022-08-07T02:35:06;98410.19;;;12.28;74.56
21096;BME280;10706;49.036;12.112;2022-08-07T02:37:35;98407.66;;;12.33;73.79
21096;BME280;10706;49.036;12.112;2022-08-07T02:40:05;98398.19;;;12.31;73.30
21096;BME280;10706;49.036;12.112;2022-08-07T02:42:32;98398.31;;;12.36;73.28
21096;BME280;10706;49.036;12.112;2022-08-07T02:44:59;98393.91;;;12.30;72.94
21096;BME280;10706;49.036;12.112;2022-08-07T02:47:26;98398.09;;;12.37;71.87
21096;BME280;10706;49.036;12.112;2022-08-07T02:49:52;98396.72;;;12.58;71.12
21096;BME280;10706;49.036;12.112;2022-08-07T02:52:40;98397.31;;;12.60;70.91
21096;BME280;10706;49.036;12.112;2022-08-07T02:55:14;98398.47;;;12.53;71.02
21096;BME280;10706;49.036;12.112;2022-08-07T02:57:42;98405.66;;;12.40;71.34
21096;BME280;10706;49.036;12.112;2022-08-07T03:00:10;98391.72;;;12.50;70.96
21096;BME280;10706;49.036;12.112;2022-08-07T03:02:36;98389.72;;;12.45;71.24
21096;BME280;10706;49.036;12.112;2022-08-07T03:05:05;98384.94;;;12.48;71.36
21096;BME280;10706;49.036;12.112;2022-08-07T03:07:33;98381.81;;;12.39;71.12
21096;BME280;10706;49.036;12.112;2022-08-07T03:10:00;98376.94;;;12.59;70.45
21096;BME280;10706;49.036;12.112;2022-08-07T03:12:27;98391.50;;;12.63;70.19
21096;BME280;10706;49.036;12.112;2022-08-07T03:14:53;98388.22;;;12.61;70.67
21096;BME280;10706;49.036;12.112;2022-08-07T03:17:23;98388.34;;;12.55;70.76
21096;BME280;10706;49.036;12.112;2022-08-07T03:19:50;98382.84;;;12.50;71.14
21096;BME280;10706;49.036;12.112;2022-08-07T03:22:17;98378.06;;;12.40;71.30
21096;BME280;10706;49.036;12.112;2022-08-07T03:24:44;98369.22;;;12.39;71.53
21096;BME280;10706;49.036;12.112;2022-08-07T03:27:10;98378.63;;;12.30;71.83
21096;BME280;10706;49.036;12.112;2022-08-07T03:29:50;98378.19;;;12.33;71.55
21096;BME280;10706;49.036;12.112;2022-08-07T03:32:35;98378.63;;;12.30;71.59
21096;BME280;10706;49.036;12.112;2022-08-07T03:35:03;98380.06;;;12.56;70.00
21096;BME280;10706;49.036;12.112;2022-08-07T03:37:32;98386.81;;;12.59;70.18
21096;BME280;10706;49.036;12.112;2022-08-07T03:39:59;98387.88;;;12.58;69.62
21096;BME280;10706;49.036;12.112;2022-08-07T03:42:25;98390.06;;;12.61;69.99
21096;BME280;10706;49.036;12.112;2022-08-07T03:44:52;98385.66;;;12.43;70.73
21096;BME280;10706;49.036;12.112;2022-08-07T03:47:18;98391.81;;;12.43;70.86
21096;BME280;10706;49.036;12.112;2022-08-07T03:49:44;98387.69;;;12.17;71.50
21096;BME280;10706;49.036;12.112;2022-08-07T03:52:11;98396.13;;;12.02;72.50
21096;BME280;10706;49.036;12.112;2022-08-07T03:54:37;98382.56;;;11.85;73.03
21096;BME280;10706;49.036;12.112;2022-08-07T03:57:04;98388.13;;;11.84;72.79
21096;BME280;10706;49.036;12.112;2022-08-07T03:59:31;98386.72;;;12.00;71.99
21096;BME280;10706;49.036;12.112;2022-08-07T04:01:57;98390.19;;;12.00;72.26
21096;BME280;10706;49.036;12.112;2022-08-07T04:04:24;98391.59;;;12.03;72.38
21096;BME280;10706;49.036;12.112;2022-08-07T04:06:51;98390.94;;;11.89;72.73
21096;BME280;10706;49.036;12.112;2022-08-07T04:09:17;98392.38;;;11.92;72.44
21096;BME280;10706;49.036;12.112;2022-08-07T04:11:44;98396.03;;;11.79;72.98
21096;BME280;10706;49.036;12.112;2022-08-07T04:14:10;98392.25;;;11.68;73.42
21096;BME280;10706;49.036;12.112;2022-08-07T04:16:37;98387.72;;;11.68;72.92
21096;BME280;10706;49.036;12.112;2022-08-07T04:19:03;98398.88;;;11.65;73.30
21096;BME280;10706;49.036;12.112;2022-08-07T04:21:30;98393.50;;;11.65;73.41
21096;BME280;10706;49.036;12.112;2022-08-07T04:23:56;98392.84;;;11.70;73.14
21096;BME280;10706;49.036;12.112;2022-08-07T04:26:23;98396.81;;;11.67;73.79
21096;BME280;10706;49.036;12.112;2022-08-07T04:28:49;98402.59;;;11.64;73.50
21096;BME280;10706;49.036;12.112;2022-08-07T04:31:15;98398.84;;;11.84;71.94
21096;BME280;10706;49.036;12.112;2022-08-07T04:33:41;98401.03;;;11.94;71.56
21096;BME280;10706;49.036;12.112;2022-08-07T04:36:07;98397.78;;;12.03;71.40
21096;BME280;10706;49.036;12.112;2022-08-07T04:38:35;98406.25;;;12.00;71.23
21096;BME280;10706;49.036;12.112;2022-08-07T04:41:01;98404.34;;;12.19;70.36
21096;BME280;10706;49.036;12.112;2022-08-07T04:43:37;98399.78;;;12.20;70.13
21096;BME280;10706;49.036;12.112;2022-08-07T04:46:17;98404.69;;;12.23;70.11
21096;BME280;10706;49.036;12.112;2022-08-07T04:49:22;98404.81;;;12.16;71.06
21096;BME280;10706;49.036;12.112;2022-08-07T04:58:09;98406.72;;;12.39;69.52
21096;BME280;10706;49.036;12.112;2022-08-07T05:00:46;98411.16;;;12.57;68.77
21096;BME280;10706;49.036;12.112;2022-08-07T05:04:24;98410.81;;;12.77;67.90
21096;BME280;10706;49.036;12.112;2022-08-07T05:06:24;98411.88;;;12.88;67.49
21096;BME280;10706;49.036;12.112;2022-08-07T05:09:09;98415.50;;;12.94;67.12
21096;BME280;10706;49.036;12.112;2022-08-07T05:11:44;98407.31;;;13.00;67.24
21096;BME280;10706;49.036;12.112;2022-08-07T05:14:42;98415.72;;;13.04;67.18
21096;BME280;10706;49.036;12.112;2022-08-07T05:17:11;98409.28;;;13.29;65.46
21096;BME280;10706;49.036;12.112;2022-08-07T05:19:46;98414.75;;;13.46;64.57
21096;BME280;10706;49.036;12.112;2022-08-07T05:22:13;98405.56;;;13.82;63.99
21096;BME280;10706;49.036;12.112;2022-08-07T05:24:41;98407.59;;;13.92;63.43
21096;BME280;10706;49.036;12.112;2022-08-07T05:27:14;98410.44;;;13.85;63.62
21096;BME280;10706;49.036;12.112;2022-08-07T05:29:42;98407.25;;;14.17;62.85
21096;BME280;10706;49.036;12.112;2022-08-07T05:32:10;98404.81;;;14.15;62.92
21096;BME280;10706;49.036;12.112;2022-08-07T05:34:39;98408.16;;;14.39;61.94
21096;BME280;10706;49.036;12.112;2022-08-07T05:37:06;98399.72;;;14.82;61.01
21096;BME280;10706;49.036;12.112;2022-08-07T05:39:34;98402.22;;;15.05;60.77
21096;BME280;10706;49.036;12.112;2022-08-07T05:42:02;98401.00;;;15.13;60.74
21096;BME280;10706;49.036;12.112;2022-08-07T05:44:29;98405.81;;;15.33;59.79
21096;BME280;10706;49.036;12.112;2022-08-07T05:46:55;98405.25;;;15.31;59.80
21096;BME280;10706;49.036;12.112;2022-08-07T05:49:22;98403.50;;;15.20;60.34
21096;BME280;10706;49.036;12.112;2022-08-07T05:51:48;98401.56;;;15.15;59.83
21096;BME280;10706;49.036;12.112;2022-08-07T05:54:17;98407.09;;;15.08;61.14
21096;BME280;10706;49.036;12.112;2022-08-07T05:56:43;98412.38;;;15.20;60.54
21096;BME280;10706;49.036;12.112;2022-08-07T05:59:17;98409.50;;;15.27;59.32
21096;BME280;10706;49.036;12.112;2022-08-07T06:01:44;98408.63;;;15.21;60.35
21096;BME280;10706;49.036;12.112;2022-08-07T06:04:14;98411.97;;;15.50;59.26
21096;BME280;10706;49.036;12.112;2022-08-07T06:06:41;98405.72;;;15.45;59.29
21096;BME280;10706;49.036;12.112;2022-08-07T06:09:08;98410.34;;;15.49;60.46
21096;BME280;10706;49.036;12.112;2022-08-07T06:11:34;98402.00;;;15.73;58.37
21096;BME280;10706;49.036;12.112;2022-08-07T06:14:00;98405.63;;;15.84;57.93
21096;BME280;10706;49.036;12.112;2022-08-07T06:16:31;98411.25;;;16.04;57.48
21096;BME280;10706;49.036;12.112;2022-08-07T06:19:00;98409.25;;;15.94;58.78
21096;BME280;10706;49.036;12.112;2022-08-07T06:21:27;98400.13;;;15.96;59.71
21096;BME280;10706;49.036;12.112;2022-08-07T06:23:53;98405.97;;;16.15;59.00
21096;BME280;10706;49.036;12.112;2022-08-07T06:26:19;98396.25;;;16.46;57.46
21096;BME280;10706;49.036;12.112;2022-08-07T06:28:54;98388.22;;;16.51;57.09
21096;BME280;10706;49.036;12.112;2022-08-07T06:31:21;98397.81;;;16.69;57.27
21096;BME280;10706;49.036;12.112;2022-08-07T06:33:47;98398.78;;;16.90;56.12
21096;BME280;10706;49.036;12.112;2022-08-07T06:36:13;98400.50;;;17.06;56.12
21096;BME280;10706;49.036;12.112;2022-08-07T06:38:41;98399.66;;;17.01;55.89
21096;BME280;10706;49.036;12.112;2022-08-07T06:41:14;98398.38;;;17.08;56.23
21096;BME280;10706;49.036;12.112;2022-08-07T06:43:43;98387.75;;;17.55;54.25
21096;BME280;10706;49.036;12.112;2022-08-07T06:46:11;98390.50;;;17.65;53.24
21096;BME280;10706;49.036;12.112;2022-08-07T06:48:37;98388.63;;;17.65;53.60
21096;BME280;10706;49.036;12.112;2022-08-07T06:51:08;98386.28;;;17.90;52.84
21096;BME280;10706;49.036;12.112;2022-08-07T06:53:39;98381.44;;;17.92;52.44
21096;BME280;10706;49.036;12.112;2022-08-07T06:56:07;98388.13;;;17.84;53.37
21096;BME280;10706;49.036;12.112;2022-08-07T06:58:34;98389.28;;;17.93;53.10
21096;BME280;10706;49.036;12.112;2022-08-07T07:01:04;98384.97;;;18.18;51.47
21096;BME280;10706;49.036;12.112;2022-08-07T07:03:32;98388.50;;;18.23;52.08
21096;BME280;10706;49.036;12.112;2022-08-07T07:05:59;98375.53;;;18.41;51.91
21096;BME280;10706;49.036;12.112;2022-08-07T07:08:27;98376.06;;;18.48;51.33
21096;BME280;10706;49.036;12.112;2022-08-07T07:10:54;98381.50;;;18.53;52.11
21096;BME280;10706;49.036;12.112;2022-08-07T07:13:33;98381.47;;;18.63;50.39
21096;BME280;10706;49.036;12.112;2022-08-07T07:16:03;98377.13;;;18.88;49.37
21096;BME280;10706;49.036;12.112;2022-08-07T07:18:43;98378.19;;;18.97;48.81
21096;BME280;10706;49.036;12.112;2022-08-07T07:21:23;98378.41;;;19.21;47.50
21096;BME280;10706;49.036;12.112;2022-08-07T07:23:51;98374.31;;;19.29;48.04
21096;BME280;10706;49.036;12.112;2022-08-07T07:26:19;98377.00;;;19.39;48.64
21096;BME280;10706;49.036;12.112;2022-08-07T07:28:53;98363.44;;;19.45;47.67
21096;BME280;10706;49.036;12.112;2022-08-07T07:31:47;98369.16;;;19.38;46.94
21096;BME280;10706;49.036;12.112;2022-08-07T07:34:27;98364.00;;;19.41;46.85
21096;BME280;10706;49.036;12.112;2022-08-07T07:36:56;98360.94;;;19.58;47.14
21096;BME280;10706;49.036;12.112;2022-08-07T07:39:24;98358.44;;;19.77;45.71
21096;BME280;10706;49.036;12.112;2022-08-07T07:41:51;98355.19;;;19.75;46.20
21096;BME280;10706;49.036;12.112;2022-08-07T07:44:19;98352.34;;;19.96;47.77
21096;BME280;10706;49.036;12.112;2022-08-07T07:46:47;98347.53;;;20.27;45.48
21096;BME280;10706;49.036;12.112;2022-08-07T07:49:16;98356.50;;;20.23;44.92
21096;BME280;10706;49.036;12.112;2022-08-07T07:51:44;98348.91;;;20.19;44.75
21096;BME280;10706;49.036;12.112;2022-08-07T07:54:12;98355.69;;;20.22;43.59
21096;BME280;10706;49.036;12.112;2022-08-07T07:56:40;98347.88;;;20.15;43.12
21096;BME280;10706;49.036;12.112;2022-08-07T07:59:09;98355.69;;;20.22;42.89
21096;BME280;10706;49.036;12.112;2022-08-07T08:01:41;98350.38;;;20.41;42.53
21096;BME280;10706;49.036;12.112;2022-08-07T08:04:08;98346.56;;;20.76;41.92
21096;BME280;10706;49.036;12.112;2022-08-07T08:06:35;98347.91;;;20.45;42.31
21096;BME280;10706;49.036;12.112;2022-08-07T08:09:03;98344.75;;;20.32;42.37
21096;BME280;10706;49.036;12.112;2022-08-07T08:11:30;98347.06;;;20.49;41.98
21096;BME280;10706;49.036;12.112;2022-08-07T08:13:57;98340.72;;;20.64;41.61
21096;BME280;10706;49.036;12.112;2022-08-07T08:16:38;98344.25;;;20.65;40.97
21096;BME280;10706;49.036;12.112;2022-08-07T08:19:07;98350.53;;;20.60;43.64
21096;BME280;10706;49.036;12.112;2022-08-07T08:21:38;98344.13;;;20.75;42.17
21096;BME280;10706;49.036;12.112;2022-08-07T08:24:25;98332.66;;;20.83;40.83
21096;BME280;10706;49.036;12.112;2022-08-07T08:27:12;98329.09;;;21.12;40.89
21096;BME280;10706;49.036;12.112;2022-08-07T08:32:14;98327.44;;;21.35;39.79
21096;BME280;10706;49.036;12.112;2022-08-07T08:34:42;98330.34;;;21.44;40.08
21096;BME280;10706;49.036;12.112;2022-08-07T08:37:11;98326.19;;;21.51;40.43
21096;BME280;10706;49.036;12.112;2022-08-07T08:39:39;98327.28;;;21.69;40.16
21096;BME280;10706;49.036;12.112;2022-08-07T08:42:31;98326.19;;;21.70;38.83
21096;BME280;10706;49.036;12.112;2022-08-07T08:48:31;98317.97;;;21.76;38.01
21096;BME280;10706;49.036;12.112;2022-08-07T08:51:37;98313.56;;;21.80;39.49
21096;BME280;10706;49.036;12.112;2022-08-07T08:54:19;98317.50;;;21.49;39.95
21096;BME280;10706;49.036;12.112;2022-08-07T08:56:49;98320.81;;;21.46;39.66
21096;BME280;10706;49.036;12.112;2022-08-07T09:02:43;98314.56;;;21.84;37.32
21096;BME280;10706;49.036;12.112;2022-08-07T09:05:42;98313.50;;;21.85;36.11
21096;BME280;10706;49.036;12.112;2022-08-07T09:09:16;98303.94;;;21.87;36.64
21096;BME280;10706;49.036;12.112;2022-08-07T09:12:28;98303.97;;;22.01;37.62
21096;BME280;10706;49.036;12.112;2022-08-07T09:15:14;98303.44;;;22.18;38.17
21096;BME280;10706;49.036;12.112;2022-08-07T09:20:56;98304.69;;;22.59;35.54
21096;BME280;10706;49.036;12.112;2022-08-07T09:24:04;98297.41;;;22.54;35.81
21096;BME280;10706;49.036;12.112;2022-08-07T09:27:05;98300.66;;;22.56;35.66
21096;BME280;10706;49.036;12.112;2022-08-07T09:30:28;98298.22;;;22.55;36.08
21096;BME280;10706;49.036;12.112;2022-08-07T09:36:00;98303.75;;;22.63;34.18
21096;BME280;10706;49.036;12.112;2022-08-07T09:42:03;98299.22;;;22.45;33.66
21096;BME280;10706;49.036;12.112;2022-08-07T09:47:43;98288.63;;;22.43;34.65
21096;BME280;10706;49.036;12.112;2022-08-07T09:53:06;98281.09;;;22.82;34.87
21096;BME280;10706;49.036;12.112;2022-08-07T10:02:16;98272.03;;;22.86;34.77
21096;BME280;10706;49.036;12.112;2022-08-07T10:05:21;98266.97;;;22.94;34.37
21096;BME280;10706;49.036;12.112;2022-08-07T10:17:11;98252.38;;;23.03;32.05
21096;BME280;10706;49.036;12.112;2022-08-07T10:29:17;98242.56;;;23.30;31.89
21096;BME280;10706;49.036;12.112;2022-08-07T10:41:30;98236.09;;;23.99;32.15
21096;BME280;10706;49.036;12.112;2022-08-07T10:44:44;98238.44;;;23.78;32.47
21096;BME280;10706;49.036;12.112;2022-08-07T10:53:08;98217.91;;;23.94;33.78
21096;BME280;10706;49.036;12.112;2022-08-07T11:04:04;98210.91;;;24.73;32.75
21096;BME280;10706;49.036;12.112;2022-08-07T11:09:44;98209.78;;;25.32;31.76
21096;BME280;10706;49.036;12.112;2022-08-07T11:12:33;98203.66;;;25.35;32.06
21096;BME280;10706;49.036;12.112;2022-08-07T11:15:13;98202.22;;;25.37;30.53
21096;BME280;10706;49.036;12.112;2022-08-07T11:17:49;98201.25;;;25.25;32.21
21096;BME280;10706;49.036;12.112;2022-08-07T11:22:55;98195.47;;;25.26;31.59
21096;BME280;10706;49.036;12.112;2022-08-07T11:25:36;98193.97;;;25.20;30.95
21096;BME280;10706;49.036;12.112;2022-08-07T11:28:33;98191.13;;;25.42;32.04
21096;BME280;10706;49.036;12.112;2022-08-07T11:31:18;98196.09;;;25.58;29.71
21096;BME280;10706;49.036;12.112;2022-08-07T11:33:53;98186.44;;;25.43;32.34
21096;BME280;10706;49.036;12.112;2022-08-07T11:39:43;98173.56;;;25.17;30.82
21096;BME280;10706;49.036;12.112;2022-08-07T11:57:21;98157.00;;;25.92;29.85
21096;BME280;10706;49.036;12.112;2022-08-07T12:00:19;98159.03;;;26.04;29.91
21096;BME280;10706;49.036;12.112;2022-08-07T12:06:48;98148.53;;;26.62;28.97
21096;BME280;10706;49.036;12.112;2022-08-07T12:09:32;98154.31;;;26.90;27.15
21096;BME280;10706;49.036;12.112;2022-08-07T12:12:24;98154.25;;;26.99;31.11
21096;BME280;10706;49.036;12.112;2022-08-07T12:15:26;98151.47;;;27.50;28.03
21096;BME280;10706;49.036;12.112;2022-08-07T12:18:21;98145.84;;;28.75;26.59
21096;BME280;10706;49.036;12.112;2022-08-07T12:21:25;98144.22;;;28.98;26.21
21096;BME280;10706;49.036;12.112;2022-08-07T12:27:14;98127.16;;;30.06;23.88
21096;BME280;10706;49.036;12.112;2022-08-07T12:29:51;98128.41;;;29.64;24.08
21096;BME280;10706;49.036;12.112;2022-08-07T12:32:46;98130.75;;;29.09;24.55
21096;BME280;10706;49.036;12.112;2022-08-07T12:35:15;98123.47;;;29.70;23.93
21096;BME280;10706;49.036;12.112;2022-08-07T12:37:45;98113.94;;;31.33;24.99
21096;BME280;10706;49.036;12.112;2022-08-07T12:40:15;98122.28;;;32.99;20.42
21096;BME280;10706;49.036;12.112;2022-08-07T12:42:42;98113.50;;;33.95;19.10
21096;BME280;10706;49.036;12.112;2022-08-07T12:45:18;98114.50;;;32.54;20.43
21096;BME280;10706;49.036;12.112;2022-08-07T12:48:06;98116.03;;;33.05;19.48
21096;BME280;10706;49.036;12.112;2022-08-07T12:50:58;98104.94;;;32.75;19.84
21096;BME280;10706;49.036;12.112;2022-08-07T12:56:40;98097.31;;;34.00;19.62
21096;BME280;10706;49.036;12.112;2022-08-07T12:59:16;98094.09;;;33.95;18.75
21096;BME280;10706;49.036;12.112;2022-08-07T13:16:40;98090.81;;;33.82;18.93
21096;BME280;10706;49.036;12.112;2022-08-07T13:19:26;98079.28;;;34.76;17.86
21096;BME280;10706;49.036;12.112;2022-08-07T13:22:07;98078.59;;;33.86;18.72
21096;BME280;10706;49.036;12.112;2022-08-07T13:24:52;98084.69;;;33.24;19.17
21096;BME280;10706;49.036;12.112;2022-08-07T13:27:37;98069.13;;;33.91;18.57
21096;BME280;10706;49.036;12.112;2022-08-07T13:30:07;98058.56;;;34.04;17.95
21096;BME280;10706;49.036;12.112;2022-08-07T13:32:54;98058.56;;;33.63;18.75
21096;BME280;10706;49.036;12.112;2022-08-07T13:35:31;98058.28;;;33.34;18.71
21096;BME280;10706;49.036;12.112;2022-08-07T13:38:19;98052.63;;;33.61;18.91
21096;BME280;10706;49.036;12.112;2022-08-07T13:41:01;98053.41;;;33.61;17.98
21096;BME280;10706;49.036;12.112;2022-08-07T13:43:29;98043.78;;;31.54;20.39
21096;BME280;10706;49.036;12.112;2022-08-07T13:46:00;98050.22;;;32.08;21.39
21096;BME280;10706;49.036;12.112;2022-08-07T13:48:30;98051.97;;;31.96;20.63
21096;BME280;10706;49.036;12.112;2022-08-07T13:50:57;98039.38;;;31.10;21.15
21096;BME280;10706;49.036;12.112;2022-08-07T13:53:32;98042.50;;;30.54;21.00
21096;BME280;10706;49.036;12.112;2022-08-07T13:59:20;98031.91;;;28.72;24.04
21096;BME280;10706;49.036;12.112;2022-08-07T14:02:00;98028.25;;;28.68;24.04
21096;BME280;10706;49.036;12.112;2022-08-07T14:04:49;98019.69;;;28.45;23.66
21096;BME280;10706;49.036;12.112;2022-08-07T14:07:21;98018.56;;;28.34;24.81
21096;BME280;10706;49.036;12.112;2022-08-07T14:09:52;98023.00;;;28.63;24.17
21096;BME280;10706;49.036;12.112;2022-08-07T14:12:51;98017.69;;;28.05;25.01
21096;BME280;10706;49.036;12.112;2022-08-07T14:15:39;98021.09;;;28.02;24.79
21096;BME280;10706;49.036;12.112;2022-08-07T14:18:20;98019.59;;;28.17;25.55
21096;BME280;10706;49.036;12.112;2022-08-07T14:20:48;98009.75;;;28.28;25.74
21096;BME280;10706;49.036;12.112;2022-08-07T14:23:21;98012.28;;;28.33;25.64
21096;BME280;10706;49.036;12.112;2022-08-07T14:25:58;98014.47;;;28.15;25.04
21096;BME280;10706;49.036;12.112;2022-08-07T14:28:27;98002.06;;;28.58;24.72
21096;BME280;10706;49.036;12.112;2022-08-07T14:30:55;98003.59;;;28.72;24.97
21096;BME280;10706;49.036;12.112;2022-08-07T14:33:22;98006.75;;;28.98;23.80
21096;BME280;10706;49.036;12.112;2022-08-07T14:35:52;98010.59;;;28.81;23.72
21096;BME280;10706;49.036;12.112;2022-08-07T14:38:23;98011.16;;;27.97;25.40
21096;BME280;10706;49.036;12.112;2022-08-07T14:40:55;98005.41;;;27.65;25.22
21096;BME280;10706;49.036;12.112;2022-08-07T14:43:24;98002.16;;;27.51;24.81
21096;BME280;10706;49.036;12.112;2022-08-07T14:45:56;98012.31;;;26.84;27.07
21096;BME280;10706;49.036;12.112;2022-08-07T14:48:35;98006.25;;;26.78;27.01
21096;BME280;10706;49.036;12.112;2022-08-07T14:51:10;98000.34;;;26.46;27.24
21096;BME280;10706;49.036;12.112;2022-08-07T14:53:40;97996.09;;;26.07;27.47
21096;BME280;10706;49.036;12.112;2022-08-07T14:56:08;97997.38;;;26.09;26.89
21096;BME280;10706;49.036;12.112;2022-08-07T14:58:40;97997.72;;;26.08;28.04
21096;BME280;10706;49.036;12.112;2022-08-07T15:01:10;98001.94;;;26.26;27.35
21096;BME280;10706;49.036;12.112;2022-08-07T15:03:38;97986.59;;;26.13;27.80
21096;BME280;10706;49.036;12.112;2022-08-07T15:06:06;98001.72;;;26.10;28.12
21096;BME280;10706;49.036;12.112;2022-08-07T15:08:42;97998.84;;;26.07;28.50
21096;BME280;10706;49.036;12.112;2022-08-07T15:11:19;97986.81;;;25.99;28.68
21096;BME280;10706;49.036;12.112;2022-08-07T15:14:02;97991.09;;;26.09;27.91
21096;BME280;10706;49.036;12.112;2022-08-07T15:16:50;98000.66;;;25.94;28.19
21096;BME280;10706;49.036;12.112;2022-08-07T15:19:18;97997.47;;;25.92;27.25
21096;BME280;10706;49.036;12.112;2022-08-07T15:21:55;97995.78;;;25.70;28.27
21096;BME280;10706;49.036;12.112;2022-08-07T15:35:21;97975.38;;;26.27;28.26
21096;BME280;10706;49.036;12.112;2022-08-07T15:38:14;97971.38;;;26.24;27.25
21096;BME280;10706;49.036;12.112;2022-08-07T15:56:02;97977.00;;;25.98;28.92
21096;BME280;10706;49.036;12.112;2022-08-07T15:58:52;97962.97;;;25.99;27.13
21096;BME280;10706;49.036;12.112;2022-08-07T16:01:44;97963.31;;;25.98;28.09